Time;durP1;ratioP1;P1;durP2;ratioP2;P2;SDS_P1;SDS_P2;PMS_P1;PMS_P2;Temp;Humidity;BMP_temperature;BMP_pressure;BME280_temperature;BME280_humidity;BME280_pressure;Samples;Min_cycle;Max_cycle;Signal;HPM_P1;HPM_P2
2022/01/08 00:00:23;;;;;;;1.30;1.23;;;-5.70;99.90;-7.30;96614.00;;;;5005750;28;20421;-74
2022/01/08 00:03:12;;;;;;;8.80;4.53;;;-5.80;99.90;-7.00;96609.00;;;;5003100;28;20452;-72
2022/01/08 00:06:00;;;;;;;3.93;3.63;;;-5.90;99.90;-6.90;96613.00;;;;5002638;28;20433;-75
2022/01/08 00:08:50;;;;;;;4.40;2.40;;;-5.90;99.90;-7.30;96616.00;;;;5002299;28;20436;-72
2022/01/08 00:11:41;;;;;;;2.60;2.40;;;-6.00;99.90;-7.30;96620.00;;;;5002809;28;20464;-75
2022/01/08 00:14:31;;;;;;;4.03;3.40;;;-6.00;99.90;-7.10;96615.00;;;;5003431;28;20867;-74
2022/01/08 00:17:22;;;;;;;1.63;1.53;;;-5.90;99.90;-7.40;96614.00;;;;5002825;28;20478;-77
2022/01/08 00:20:13;;;;;;;1.17;1.17;;;-5.90;99.90;-7.30;96610.00;;;;5004214;28;20560;-74
2022/01/08 00:23:02;;;;;;;5.30;3.67;;;-6.00;99.90;-7.00;96600.00;;;;5003878;28;20582;-74
2022/01/08 00:25:51;;;;;;;5.40;4.20;;;-6.00;99.90;-6.70;96607.00;;;;5005060;28;20959;-78
2022/01/08 00:28:39;;;;;;;8.67;4.40;;;-5.90;99.90;-6.90;96601.00;;;;5005359;28;20948;-75
2022/01/08 00:31:30;;;;;;;3.73;3.23;;;-5.80;99.90;-7.20;96600.00;;;;5002839;28;20812;-75
2022/01/08 00:34:19;;;;;;;3.83;3.37;;;-6.50;99.90;-7.20;96599.00;;;;5004570;28;20438;-76
2022/01/08 00:37:08;;;;;;;4.90;4.00;;;-6.00;99.90;-7.10;96595.00;;;;5004820;28;20951;-73
2022/01/08 00:39:57;;;;;;;3.23;2.97;;;-6.00;99.90;-7.20;96594.00;;;;5004924;28;20432;-75
2022/01/08 00:42:46;;;;;;;3.37;3.07;;;-6.90;99.90;-7.50;96593.00;;;;4997572;28;20440;-75
2022/01/08 00:45:35;;;;;;;3.63;2.80;;;-6.10;99.90;-7.50;96595.00;;;;5004108;28;20420;-75
2022/01/08 00:48:25;;;;;;;5.20;3.17;;;-6.20;99.90;-7.30;96583.00;;;;5001251;28;20791;-73
2022/01/08 00:51:14;;;;;;;4.77;3.20;;;-6.20;99.90;-7.10;96582.00;;;;5005245;28;20451;-75
2022/01/08 00:54:03;;;;;;;6.03;3.83;;;-6.20;99.90;-6.90;96579.00;;;;5004377;28;20440;-74
2022/01/08 00:56:52;;;;;;;4.90;3.60;;;-6.10;99.90;-6.90;96585.00;;;;5001815;28;21003;-75
2022/01/08 00:59:41;;;;;;;6.30;4.35;;;-6.00;99.90;-7.00;96588.00;;;;5003197;28;20725;-74
2022/01/08 01:02:30;;;;;;;8.43;4.27;;;-6.10;99.90;-7.40;96585.00;;;;4995511;28;20232;-75
2022/01/08 01:05:21;;;;;;;5.57;4.47;;;-6.20;99.90;-7.50;96587.00;;;;5003492;28;20433;-75
2022/01/08 01:08:10;;;;;;;5.37;4.77;;;-6.20;99.90;-7.40;96580.00;;;;5003818;28;20599;-74
2022/01/08 01:10:59;;;;;;;4.90;4.10;;;-6.30;99.90;-7.20;96584.00;;;;5003076;28;20457;-77
2022/01/08 01:13:47;;;;;;;5.30;4.80;;;-6.30;99.90;-7.10;96582.00;;;;5004424;28;20948;-74
2022/01/08 01:16:36;;;;;;;4.28;3.58;;;-6.00;99.90;-7.20;96591.00;;;;5003157;28;20477;-75
2022/01/08 01:19:25;;;;;;;3.97;3.23;;;-6.30;99.90;-7.40;96583.00;;;;5003451;28;20254;-75
2022/01/08 01:22:19;;;;;;;4.90;4.40;;;-6.30;99.90;-7.30;96583.00;;;;5000973;28;20460;-75
2022/01/08 01:25:11;;;;;;;3.70;3.40;;;-6.30;99.90;-7.30;96577.00;;;;5004057;28;20479;-74
2022/01/08 01:47:00;;;;;;;5.13;3.03;;;-6.20;99.90;-7.20;96558.00;;;;5007466;28;20429;-73
2022/01/08 01:47:01;;;;;;;4.00;3.53;;;-7.40;99.90;-7.30;96565.00;;;;5004446;28;20435;-74
2022/01/08 01:49:50;;;;;;;7.37;3.10;;;-6.20;99.90;-7.30;96553.00;;;;5006902;28;20429;-73
2022/01/08 01:52:41;;;;;;;4.50;2.63;;;-6.20;99.90;-7.60;96546.00;;;;5007474;28;20849;-74
2022/01/08 01:55:29;;;;;;;5.03;4.50;;;-6.40;99.90;-7.30;96553.00;;;;5006373;28;20500;-74
2022/01/08 01:58:19;;;;;;;4.20;3.90;;;-6.30;99.90;-7.60;96551.00;;;;5006883;28;20429;-73
2022/01/08 02:01:07;;;;;;;3.70;3.00;;;-6.10;99.90;-7.60;96536.00;;;;5006495;28;20449;-74
2022/01/08 02:03:56;;;;;;;2.73;2.37;;;-6.40;99.90;-7.60;96533.00;;;;5003903;28;20433;-75
2022/01/08 02:06:46;;;;;;;5.80;4.63;;;-6.40;99.90;-7.40;96548.00;;;;5004984;28;20422;-75
2022/01/08 02:09:39;;;;;;;4.00;3.60;;;-6.40;99.90;-7.00;96535.00;;;;4996882;28;20210;-75
2022/01/08 02:12:33;;;;;;;4.27;3.20;;;-6.30;99.90;-7.10;96548.00;;;;5007130;28;20461;-75
2022/01/08 02:15:22;;;;;;;7.63;5.60;;;-6.20;99.90;-7.20;96535.00;;;;5007062;28;20429;-75
2022/01/08 02:18:11;;;;;;;2.95;2.75;;;-6.20;99.90;-7.40;96526.00;;;;5007026;28;20440;-74
2022/01/08 02:21:03;;;;;;;4.90;4.00;;;-6.30;99.90;-7.20;96524.00;;;;5002790;28;20244;-76
2022/01/08 02:23:52;;;;;;;4.23;3.47;;;-6.30;99.90;-7.10;96526.00;;;;5006445;28;20202;-75
2022/01/08 02:26:41;;;;;;;6.10;2.90;;;-6.30;99.90;-7.30;96528.00;;;;5006969;28;20437;-74
2022/01/08 02:29:30;;;;;;;1.30;1.27;;;-6.30;99.90;-7.70;96513.00;;;;5006828;28;20417;-75
2022/01/08 02:32:25;;;;;;;3.23;3.03;;;-6.30;99.90;-7.60;96508.00;;;;5007536;28;20457;-76
2022/01/08 02:35:16;;;;;;;2.63;2.43;;;-6.40;99.90;-7.30;96505.00;;;;5006290;28;20960;-73
2022/01/08 02:38:06;;;;;;;6.50;3.97;;;-6.30;99.90;-7.30;96505.00;;;;5007713;28;20813;-74
2022/01/08 02:40:58;;;;;;;4.10;3.70;;;-6.40;99.90;-7.40;96513.00;;;;5007266;28;20460;-74
2022/01/08 02:43:52;;;;;;;2.30;2.03;;;-6.40;99.90;-7.60;96507.00;;;;5007201;28;20479;-76
2022/01/08 02:46:42;;;;;;;3.25;3.05;;;-6.40;99.90;-7.60;96503.00;;;;5001396;28;20441;-74
2022/01/08 02:49:34;;;;;;;5.28;3.50;;;-6.40;99.90;-7.50;96495.00;;;;5006318;28;20209;-72
2022/01/08 02:52:24;;;;;;;3.20;3.00;;;-6.30;99.90;-7.60;96504.00;;;;5007160;28;20218;-75
2022/01/08 02:55:16;;;;;;;4.80;3.50;;;-6.40;99.90;-7.50;96495.00;;;;5005721;28;20789;-73
2022/01/08 02:58:05;;;;;;;3.75;3.08;;;-6.40;99.90;-7.60;96495.00;;;;5003275;28;20221;-74
2022/01/08 03:00:54;;;;;;;1.80;1.27;;;-6.50;99.90;-7.70;96486.00;;;;5001966;28;20218;-75
2022/01/08 03:03:43;;;;;;;3.13;2.83;;;-6.20;99.90;-7.60;96484.00;;;;4999946;28;20429;-74
2022/01/08 03:06:32;;;;;;;3.88;3.53;;;-6.40;99.90;-7.40;96477.00;;;;5004360;28;20213;-74
2022/01/08 03:09:21;;;;;;;2.40;1.77;;;-6.40;99.90;-7.60;96478.00;;;;5004788;28;20208;-76
2022/01/08 03:12:11;;;;;;;3.20;3.00;;;-6.40;99.90;-7.40;96489.00;;;;5006558;28;20226;-76
2022/01/08 03:15:00;;;;;;;4.18;3.50;;;-6.40;99.90;-7.30;96490.00;;;;5005732;28;20202;-74
2022/01/08 03:17:51;;;;;;;4.67;3.80;;;-6.40;99.90;-7.30;96476.00;;;;5006805;28;20689;-75
2022/01/08 03:20:46;;;;;;;5.20;4.13;;;-6.40;99.90;-7.10;96489.00;;;;4996551;28;20457;-76
2022/01/08 03:23:40;;;;;;;3.37;3.03;;;-6.30;99.90;-7.00;96479.00;;;;5005998;28;20951;-74
2022/01/08 03:26:30;;;;;;;4.27;3.10;;;-6.30;99.90;-6.90;96470.00;;;;5006217;28;20474;-73
2022/01/08 03:29:21;;;;;;;4.40;4.00;;;-6.20;99.90;-6.80;96470.00;;;;5006105;28;20451;-73
2022/01/08 03:32:09;;;;;;;3.87;3.17;;;-6.10;99.90;-6.90;96458.00;;;;5004695;28;20464;-74
2022/01/08 03:34:58;;;;;;;3.43;2.97;;;-6.10;99.90;-7.30;96474.00;;;;5004329;28;20444;-73
2022/01/08 03:37:47;;;;;;;3.93;2.63;;;-6.10;99.90;-7.40;96460.00;;;;5006948;28;20465;-75
2022/01/08 03:40:36;;;;;;;3.57;3.30;;;-6.20;99.90;-7.00;96461.00;;;;5005071;28;20440;-76
2022/01/08 03:43:25;;;;;;;6.37;3.13;;;-6.20;99.90;-7.10;96455.00;;;;5005195;28;20973;-74
2022/01/08 03:46:18;;;;;;;3.67;3.37;;;-6.20;99.90;-7.30;96458.00;;;;4999758;28;20569;-75
2022/01/08 03:49:22;;;;;;;3.60;3.30;;;-6.20;99.90;-7.30;96454.00;;;;5006178;28;20437;-74
2022/01/08 03:52:12;;;;;;;4.63;3.37;;;-6.20;99.90;-7.40;96449.00;;;;5004819;28;20452;-74
2022/01/08 03:55:01;;;;;;;5.23;3.63;;;-6.30;99.90;-7.30;96467.00;;;;5005501;28;20449;-74
2022/01/08 03:57:50;;;;;;;3.17;2.95;;;-6.30;99.90;-7.30;96462.00;;;;4995881;28;20469;-74
2022/01/08 04:00:39;;;;;;;3.83;3.45;;;-6.30;99.90;-7.20;96459.00;;;;5004567;28;20194;-73
2022/01/08 04:03:29;;;;;;;4.30;3.90;;;-6.20;99.90;-7.10;96463.00;;;;5002244;28;20677;-73
2022/01/08 04:06:19;;;;;;;4.10;3.28;;;-6.20;99.90;-7.00;96454.00;;;;5001097;28;20421;-73
2022/01/08 04:09:07;;;;;;;6.97;4.93;;;-6.20;99.90;-6.80;96459.00;;;;5001071;28;20210;-74
2022/01/08 04:11:57;;;;;;;3.63;3.33;;;-6.10;99.90;-6.70;96461.00;;;;5004999;28;20968;-73
2022/01/08 04:14:53;;;;;;;4.70;3.43;;;-6.00;99.90;-7.00;96459.00;;;;5005317;28;20434;-76
2022/01/08 04:17:42;;;;;;;3.23;2.67;;;-6.00;99.90;-7.30;96461.00;;;;5004604;28;20873;-74
2022/01/08 04:20:35;;;;;;;2.03;1.20;;;-5.10;99.90;-7.40;96460.00;;;;4996525;28;20440;-75
2022/01/08 04:23:24;;;;;;;3.23;2.93;;;-6.10;99.90;-7.10;96443.00;;;;5003924;28;20428;-74
2022/01/08 04:26:13;;;;;;;5.67;3.57;;;-6.10;99.90;-6.70;96454.00;;;;5003993;28;20436;-73
2022/01/08 04:29:04;;;;;;;4.43;2.97;;;-6.00;99.90;-6.90;96438.00;;;;5004445;28;20441;-73
2022/01/08 04:31:53;;;;;;;3.90;3.53;;;-6.00;99.90;-6.80;96438.00;;;;5004903;28;20716;-74
2022/01/08 04:34:42;;;;;;;5.53;2.87;;;-6.00;99.90;-6.90;96440.00;;;;5007399;28;20436;-76
2022/01/08 04:37:33;;;;;;;5.07;3.90;;;-5.80;99.90;-7.10;96432.00;;;;5008355;28;20876;-75
2022/01/08 04:40:22;;;;;;;2.43;2.33;;;-5.80;99.90;-7.30;96449.00;;;;5006268;28;20994;-75
2022/01/08 04:43:11;;;;;;;4.33;2.07;;;-6.10;99.90;-7.30;96434.00;;;;5005184;28;20973;-72
2022/01/08 04:46:01;;;;;;;1.53;1.43;;;-6.10;99.90;-7.20;96443.00;;;;5003638;28;20441;-73
2022/01/08 04:48:50;;;;;;;10.83;2.43;;;-6.10;99.90;-7.30;96445.00;;;;5002527;28;20516;-73
2022/01/08 04:51:39;;;;;;;2.92;2.72;;;-6.10;99.90;-7.10;96447.00;;;;5002980;28;20449;-73
2022/01/08 04:54:29;;;;;;;3.10;2.73;;;-6.10;99.90;-7.20;96444.00;;;;5001203;28;20198;-74
2022/01/08 04:57:18;;;;;;;6.00;4.27;;;-6.10;99.90;-7.10;96441.00;;;;5004308;28;20469;-74
2022/01/08 05:00:09;;;;;;;4.63;4.17;;;-6.10;99.90;-6.90;96441.00;;;;5003224;28;20467;-74
2022/01/08 05:02:58;;;;;;;2.87;2.30;;;-6.00;99.90;-6.80;96455.00;;;;5001407;28;20433;-74
2022/01/08 05:05:47;;;;;;;2.13;2.03;;;-5.90;99.90;-6.80;96442.00;;;;5003638;28;20470;-75
2022/01/08 05:08:36;;;;;;;1.93;1.83;;;-5.90;99.90;-7.00;96444.00;;;;5002073;28;20433;-75
2022/01/08 05:11:27;;;;;;;2.60;2.40;;;-5.90;99.90;-7.00;96433.00;;;;5004286;28;20463;-74
2022/01/08 05:14:16;;;;;;;2.27;1.93;;;-5.90;99.90;-6.90;96435.00;;;;4996063;28;20417;-74
2022/01/08 05:17:05;;;;;;;5.33;2.87;;;-5.90;99.90;-6.90;96440.00;;;;5008064;28;20957;-76
2022/01/08 05:19:57;;;;;;;1.30;1.20;;;-5.90;99.90;-7.10;96430.00;;;;5007994;28;20429;-74
2022/01/08 05:22:52;;;;;;;5.00;2.70;;;-5.80;99.90;-7.00;96419.00;;;;5008782;28;21083;-74
2022/01/08 05:25:41;;;;;;;0.80;0.80;;;-5.90;99.90;-7.00;96423.00;;;;4997622;28;20840;-73
2022/01/08 05:28:31;;;;;;;1.53;1.43;;;-5.90;99.90;-7.00;96424.00;;;;5008287;28;20428;-76
2022/01/08 05:31:22;;;;;;;5.37;3.37;;;-5.90;99.90;-6.90;96443.00;;;;5007180;28;20457;-77
2022/01/08 05:34:11;;;;;;;2.67;2.43;;;-4.90;99.90;-6.80;96431.00;;;;5008554;28;20474;-74
2022/01/08 05:37:00;;;;;;;3.17;2.50;;;-5.90;99.90;-7.10;96421.00;;;;5008022;28;20448;-75
2022/01/08 05:39:50;;;;;;;4.60;3.27;;;-5.90;99.90;-7.00;96417.00;;;;5006883;28;20436;-74
2022/01/08 05:42:41;;;;;;;4.63;3.23;;;-5.90;99.90;-6.90;96428.00;;;;5007539;28;20821;-75
2022/01/08 05:45:32;;;;;;;1.63;1.53;;;-5.90;99.90;-7.10;96423.00;;;;5007165;28;21007;-73
2022/01/08 05:48:21;;;;;;;2.70;2.50;;;-5.90;99.90;-7.00;96424.00;;;;5003598;28;20973;-74
2022/01/08 05:51:10;;;;;;;3.83;3.10;;;-5.90;99.90;-6.90;96427.00;;;;5006390;28;20453;-75
2022/01/08 05:53:59;;;;;;;5.33;3.73;;;-5.90;99.90;-6.70;96424.00;;;;5008749;28;20434;-75
2022/01/08 05:56:49;;;;;;;2.93;2.73;;;-5.90;99.90;-6.70;96416.00;;;;5008015;28;20432;-75
2022/01/08 05:59:38;;;;;;;3.83;3.13;;;-5.80;99.90;-6.50;96413.00;;;;5006861;28;20432;-74
2022/01/08 06:02:28;;;;;;;3.97;3.67;;;-5.80;99.90;-6.60;96414.00;;;;5004087;28;20845;-76
2022/01/08 06:05:17;;;;;;;5.77;3.40;;;-5.70;99.90;-6.80;96416.00;;;;5007232;28;20421;-75
2022/01/08 06:08:06;;;;;;;2.47;2.30;;;-5.70;99.90;-7.00;96416.00;;;;5007405;28;20436;-73
2022/01/08 06:10:55;;;;;;;3.83;2.47;;;-5.80;99.90;-7.00;96404.00;;;;5006496;28;20461;-76
2022/01/08 06:13:44;;;;;;;5.30;3.13;;;-5.90;99.90;-7.10;96420.00;;;;5007537;28;20437;-75
2022/01/08 06:16:35;;;;;;;4.30;3.17;;;-5.90;99.90;-7.20;96413.00;;;;5006717;28;20430;-74
2022/01/08 06:19:26;;;;;;;4.73;4.30;;;-5.90;99.90;-6.90;96413.00;;;;5007313;28;20471;-73
2022/01/08 06:22:16;;;;;;;2.03;1.93;;;-4.30;99.90;-6.90;96413.00;;;;5000854;28;21039;-73
2022/01/08 06:25:06;;;;;;;4.43;4.03;;;-6.00;99.90;-7.00;96415.00;;;;5006860;28;20463;-73
2022/01/08 06:27:55;;;;;;;4.00;2.80;;;-6.00;99.90;-7.20;96423.00;;;;5007281;28;20425;-74
2022/01/08 06:30:44;;;;;;;7.50;3.67;;;-6.00;99.90;-7.00;96428.00;;;;5006199;28;20944;-76
2022/01/08 06:33:33;;;;;;;3.70;3.40;;;-6.00;99.90;-6.90;96427.00;;;;5007516;28;20433;-73
2022/01/08 06:36:23;;;;;;;1.07;1.07;;;-6.00;99.90;-6.90;96438.00;;;;5007672;28;20570;-74
2022/01/08 06:39:12;;;;;;;3.60;3.35;;;-5.90;99.90;-6.90;96433.00;;;;5006310;28;20468;-75
2022/01/08 06:42:01;;;;;;;6.05;3.45;;;-5.80;99.90;-7.00;96438.00;;;;5007533;28;20716;-75
2022/01/08 06:44:51;;;;;;;4.47;3.83;;;-5.80;99.90;-7.00;96443.00;;;;4994545;28;20202;-75
2022/01/08 06:47:42;;;;;;;1.03;1.00;;;-5.90;99.90;-7.10;96428.00;;;;5001327;28;20467;-74
2022/01/08 06:50:30;;;;;;;5.47;4.37;;;-5.90;99.90;-7.10;96428.00;;;;5005542;28;20822;-75
2022/01/08 06:53:21;;;;;;;3.30;2.97;;;-6.00;99.90;-7.20;96431.00;;;;5007456;28;20425;-74
2022/01/08 06:56:10;;;;;;;3.00;2.70;;;-6.00;99.90;-7.10;96436.00;;;;5006288;28;20437;-74
2022/01/08 06:58:59;;;;;;;6.13;2.40;;;-6.00;99.90;-7.20;96433.00;;;;5006000;28;20886;-74
2022/01/08 07:01:48;;;;;;;4.17;2.37;;;-6.00;99.90;-7.00;96425.00;;;;5006947;28;20459;-72
2022/01/08 07:04:36;;;;;;;2.63;2.43;;;-6.00;99.90;-6.80;96436.00;;;;5003573;28;20433;-73
2022/01/08 07:07:27;;;;;;;3.57;3.20;;;-5.80;99.90;-6.90;96431.00;;;;5005193;28;20433;-75
2022/01/08 07:10:18;;;;;;;4.73;3.43;;;-5.70;99.90;-7.00;96423.00;;;;5003146;28;20433;-74
2022/01/08 07:13:10;;;;;;;2.80;2.60;;;-5.80;99.90;-6.60;96426.00;;;;5005335;28;20450;-76
2022/01/08 07:15:59;;;;;;;4.53;3.03;;;-5.70;99.90;-6.70;96440.00;;;;5005094;28;20437;-74
2022/01/08 07:18:47;;;;;;;2.10;1.90;;;-5.60;99.90;-7.10;96425.00;;;;5006437;28;20461;-76
2022/01/08 07:21:36;;;;;;;6.97;4.37;;;-5.70;99.90;-7.00;96423.00;;;;5004337;28;20508;-77
2022/01/08 07:24:25;;;;;;;2.70;2.53;;;-5.80;99.90;-6.90;96425.00;;;;5006906;28;20440;-75
2022/01/08 07:27:16;;;;;;;4.17;3.40;;;-5.80;99.90;-6.70;96419.00;;;;5005749;28;20437;-75
2022/01/08 07:30:09;;;;;;;3.53;2.87;;;-5.80;99.90;-6.60;96419.00;;;;5005588;28;20456;-75
2022/01/08 07:32:57;;;;;;;4.50;2.13;;;-5.70;99.90;-6.70;96422.00;;;;5004951;28;20434;-74
2022/01/08 07:35:46;;;;;;;7.60;3.37;;;-5.70;99.90;-6.60;96415.00;;;;4990361;28;20466;-74
2022/01/08 07:38:36;;;;;;;5.07;3.93;;;-5.80;99.90;-6.20;96423.00;;;;4995914;28;20503;-74
2022/01/08 07:41:25;;;;;;;8.53;5.57;;;-5.40;99.90;-6.20;96420.00;;;;4986403;28;20472;-73
2022/01/08 07:44:16;;;;;;;10.30;6.37;;;-5.30;99.90;-6.20;96418.00;;;;4995809;28;20433;-73
2022/01/08 07:47:05;;;;;;;5.47;4.53;;;-5.30;99.90;-6.10;96418.00;;;;4994542;28;20433;-72
2022/01/08 07:49:54;;;;;;;6.47;5.23;;;-4.60;99.90;-6.10;96418.00;;;;4994102;28;20449;-74
2022/01/08 07:52:43;;;;;;;3.77;3.40;;;-5.20;99.90;-6.20;96412.00;;;;4997023;28;20464;-75
2022/01/08 07:55:33;;;;;;;3.87;3.57;;;-5.20;99.90;-6.50;96402.00;;;;5001305;28;20441;-75
2022/01/08 07:58:22;;;;;;;1.13;1.10;;;-5.20;99.90;-6.50;96402.00;;;;5002615;28;20473;-75
2022/01/08 08:01:12;;;;;;;1.37;1.33;;;-5.30;99.90;-6.40;96421.00;;;;4998810;28;21729;-75
2022/01/08 08:04:01;;;;;;;3.10;1.83;;;-5.30;99.90;-6.40;96409.00;;;;4999394;28;20422;-74
2022/01/08 08:06:51;;;;;;;2.73;2.50;;;-5.30;99.90;-6.20;96420.00;;;;5002517;28;20430;-73
2022/01/08 08:09:40;;;;;;;3.93;2.57;;;-5.20;99.90;-6.00;96422.00;;;;5002491;28;20428;-74
2022/01/08 08:12:32;;;;;;;7.40;3.60;;;-5.20;99.90;-5.90;96419.00;;;;5003845;28;20964;-73
2022/01/08 08:15:21;;;;;;;4.30;3.90;;;-5.10;99.90;-5.70;96407.00;;;;4994057;28;20456;-74
2022/01/08 08:18:13;;;;;;;4.47;4.07;;;-5.00;99.90;-5.80;96412.00;;;;5000600;28;21324;-73
2022/01/08 08:21:02;;;;;;;6.73;5.60;;;-4.90;99.90;-5.60;96407.00;;;;4999716;28;20563;-74
2022/01/08 08:23:51;;;;;;;9.70;6.00;;;-4.80;99.90;-5.40;96414.00;;;;5004498;28;20439;-73
2022/01/08 08:26:40;;;;;;;5.40;4.77;;;-4.70;99.90;-5.30;96412.00;;;;5005122;28;20433;-73
2022/01/08 08:29:29;;;;;;;7.17;5.73;;;-4.50;99.90;-5.30;96415.00;;;;5005657;28;20802;-70
2022/01/08 08:32:21;;;;;;;4.73;4.33;;;-4.50;99.90;-5.20;96417.00;;;;4998889;28;20457;-71
2022/01/08 08:35:12;;;;;;;5.00;3.93;;;-4.40;99.90;-5.10;96414.00;;;;4999355;28;20809;-73
2022/01/08 08:38:01;;;;;;;5.43;4.03;;;-4.30;99.90;-5.20;96407.00;;;;4996816;28;20528;-71
2022/01/08 08:40:51;;;;;;;5.10;3.87;;;-4.30;99.90;-5.10;96418.00;;;;4997225;28;20506;-74
2022/01/08 08:43:40;;;;;;;5.27;3.67;;;-4.20;99.90;-5.30;96414.00;;;;5002543;28;20948;-72
2022/01/08 08:46:29;;;;;;;3.93;3.63;;;-4.20;99.90;-4.70;96425.00;;;;5000036;28;20809;-71
2022/01/08 08:49:18;;;;;;;5.07;4.57;;;-4.10;99.90;-4.50;96428.00;;;;5002076;28;20449;-72
2022/01/08 08:52:09;;;;;;;4.67;3.73;;;-4.00;99.90;-4.40;96425.00;;;;4999007;28;21607;-72
2022/01/08 08:54:58;;;;;;;2.97;2.60;;;-3.80;99.90;-4.00;96440.00;;;;4999053;28;20437;-71
2022/01/08 08:57:47;;;;;;;4.77;4.27;;;-3.60;99.90;-3.90;96431.00;;;;4994878;28;20444;-69
2022/01/08 09:00:36;;;;;;;5.37;3.27;;;-3.40;99.90;-3.60;96430.00;;;;4997845;28;20499;-70
2022/01/08 09:03:25;;;;;;;4.10;3.70;;;-3.20;99.90;-3.20;96434.00;;;;4995497;28;20486;-72
2022/01/08 09:06:14;;;;;;;7.23;4.60;;;-3.00;99.90;-2.60;96435.00;;;;4989982;28;20449;-70
2022/01/08 09:09:05;;;;;;;5.13;3.93;;;-2.70;99.90;-2.50;96440.00;;;;4997908;28;20429;-71
2022/01/08 09:11:55;;;;;;;6.20;4.60;;;-2.40;99.90;-2.70;96443.00;;;;4996377;28;20867;-71
2022/01/08 09:14:45;;;;;;;8.17;4.90;;;-2.20;99.90;-2.70;96447.00;;;;4994913;28;20428;-71
2022/01/08 09:17:36;;;;;;;6.70;4.10;;;-2.10;99.90;-2.50;96452.00;;;;5000138;28;20827;-70
2022/01/08 09:20:26;;;;;;;5.00;4.23;;;-2.00;99.90;-2.30;96458.00;;;;4994135;28;20495;-70
2022/01/08 09:23:17;;;;;;;5.53;4.70;;;-1.90;99.90;-2.00;96471.00;;;;4998984;28;20967;-70
2022/01/08 09:26:08;;;;;;;6.70;4.93;;;-1.80;99.90;-1.80;96461.00;;;;4997857;28;20433;-71
2022/01/08 09:28:57;;;;;;;11.00;5.13;;;-1.70;99.90;-1.80;96462.00;;;;4995978;28;20831;-69
2022/01/08 09:31:46;;;;;;;9.40;5.03;;;-1.50;99.90;-1.60;96469.00;;;;4996214;28;20510;-71
2022/01/08 09:34:36;;;;;;;9.03;5.27;;;-1.40;99.90;-1.50;96460.00;;;;4997468;28;20437;-70
2022/01/08 09:37:26;;;;;;;5.93;5.30;;;-1.30;99.90;-1.30;96460.00;;;;4995601;28;20440;-70
2022/01/08 09:40:18;;;;;;;7.47;4.53;;;-1.20;99.90;-1.10;96446.00;;;;4994465;28;21023;-70
2022/01/08 09:43:11;;;;;;;5.63;3.90;;;-1.00;99.90;-1.20;96440.00;;;;4992695;28;20494;-71
2022/01/08 09:46:00;;;;;;;5.37;3.97;;;-0.90;99.90;-1.20;96436.00;;;;4993477;28;20441;-70
2022/01/08 09:48:50;;;;;;;4.17;3.57;;;-0.70;99.90;-1.40;96443.00;;;;4996622;28;20828;-70
2022/01/08 09:51:40;;;;;;;8.17;4.73;;;-0.80;99.90;-1.40;96440.00;;;;4995393;28;20476;-71
2022/01/08 09:54:29;;;;;;;8.27;5.07;;;-0.70;99.90;-1.20;96433.00;;;;4993734;28;20453;-71
2022/01/08 09:57:18;;;;;;;6.37;4.00;;;-0.70;99.90;-1.10;96430.00;;;;4994797;28;20627;-72
2022/01/08 10:00:15;;;;;;;4.63;4.23;;;-0.60;99.90;-1.20;96438.00;;;;4996762;28;20512;-71
2022/01/08 10:03:21;;;;;;;10.07;4.80;;;-0.60;99.90;-1.10;96440.00;;;;4995989;28;20449;-71
2022/01/08 10:06:09;;;;;;;6.33;4.43;;;-0.60;99.90;-0.90;96429.00;;;;4999419;28;20452;-71
2022/01/08 10:09:06;;;;;;;7.73;4.67;;;-0.50;99.90;-0.70;96426.00;;;;5005516;28;20429;-71
2022/01/08 10:11:55;;;;;;;7.37;3.97;;;-0.40;99.90;-0.40;96424.00;;;;5006041;28;20968;-71
2022/01/08 10:17:51;;;;;;;5.60;4.47;;;-0.10;99.90;-0.30;96420.00;;;;5006730;28;21081;-72
2022/01/08 10:20:43;;;;;;;5.60;3.73;;;0.10;99.90;-0.30;96411.00;;;;5006181;28;20461;-71
2022/01/08 10:23:32;;;;;;;6.37;4.23;;;0.20;99.90;0.00;96406.00;;;;4993307;28;20469;-70
2022/01/08 10:26:24;;;;;;;6.03;3.97;;;0.30;99.90;-0.10;96400.00;;;;4994722;28;20838;-72
2022/01/08 10:29:17;;;;;;;11.70;4.00;;;0.30;99.90;-0.20;96397.00;;;;4997229;28;20445;-73
2022/01/08 10:32:08;;;;;;;16.30;4.80;;;0.30;99.90;-0.30;96407.00;;;;4996144;28;20700;-71
2022/01/08 10:34:58;;;;;;;4.63;3.17;;;0.30;99.90;-0.40;96429.00;;;;4995607;28;20441;-71
2022/01/08 10:37:53;;;;;;;10.60;4.60;;;0.30;99.90;0.00;96414.00;;;;4988414;28;20803;-70
2022/01/08 10:40:42;;;;;;;5.00;3.67;;;0.30;99.90;-0.10;96419.00;;;;4996350;28;20464;-71
2022/01/08 10:43:33;;;;;;;13.50;3.93;;;0.40;99.90;-0.10;96413.00;;;;5008018;28;21086;-71
2022/01/08 10:46:22;;;;;;;7.60;4.03;;;0.40;99.90;-0.20;96401.00;;;;5005939;28;20414;-74
2022/01/08 10:49:15;;;;;;;9.87;3.73;;;0.40;99.90;0.10;96398.00;;;;5007493;28;20426;-72
2022/01/08 10:52:08;;;;;;;6.07;4.30;;;0.40;99.90;0.20;96398.00;;;;5008566;28;20811;-71
2022/01/08 10:54:59;;;;;;;7.37;4.03;;;0.50;99.90;0.00;96392.00;;;;5002574;28;20437;-71
2022/01/08 10:57:48;;;;;;;7.33;3.53;;;0.60;99.90;0.20;96373.00;;;;5005761;28;20437;-71
2022/01/08 11:00:37;;;;;;;6.23;4.23;;;0.60;99.90;0.60;96361.00;;;;4999031;28;20457;-72
2022/01/08 11:03:40;;;;;;;7.07;4.00;;;0.80;99.90;1.40;96356.00;;;;5001678;28;20425;-72
2022/01/08 11:06:29;;;;;;;7.40;5.83;;;1.10;99.90;1.10;96345.00;;;;5005042;28;21018;-72
2022/01/08 11:09:19;;;;;;;16.07;6.30;;;1.50;99.90;2.00;96327.00;;;;5007060;28;20426;-71
2022/01/08 11:12:16;;;;;;;8.00;4.93;;;1.90;99.90;2.40;96335.00;;;;5007022;28;20445;-72
2022/01/08 11:15:36;;;;;;;10.33;3.90;;;2.40;99.90;3.40;96334.00;;;;5006628;28;20464;-73
2022/01/08 11:18:27;;;;;;;8.47;2.83;;;3.10;99.90;4.10;96340.00;;;;5001100;28;20685;-72
2022/01/08 11:21:16;;;;;;;2.90;2.53;;;3.90;99.90;4.20;96329.00;;;;5004433;28;20226;-72
2022/01/08 11:24:07;;;;;;;7.57;3.33;;;4.70;99.20;4.60;96334.00;;;;5006426;28;20213;-73
2022/01/08 11:26:59;;;;;;;7.33;3.37;;;5.40;94.60;5.10;96326.00;;;;4997122;28;20202;-73
2022/01/08 11:29:58;;;;;;;5.43;2.97;;;5.90;92.60;5.10;96325.00;;;;5004007;28;20779;-72
2022/01/08 11:32:49;;;;;;;4.77;2.73;;;6.40;88.10;5.50;96306.00;;;;5005925;28;20227;-74
2022/01/08 11:35:53;;;;;;;4.47;2.73;;;6.90;84.20;6.00;96313.00;;;;4998323;28;20259;-72
2022/01/08 11:38:44;;;;;;;3.97;2.27;;;7.50;79.80;6.50;96309.00;;;;5003293;28;20206;-73
2022/01/08 11:41:33;;;;;;;4.43;2.53;;;7.80;74.60;6.90;96304.00;;;;5005975;28;20248;-73
2022/01/08 11:44:26;;;;;;;4.33;2.60;;;8.00;72.90;6.60;96303.00;;;;5001394;28;20205;-74
2022/01/08 11:47:16;;;;;;;4.37;2.67;;;8.10;68.10;6.20;96314.00;;;;4993759;28;20215;-74
2022/01/08 11:50:07;;;;;;;3.63;2.80;;;8.20;68.30;6.30;96323.00;;;;4998469;28;20224;-76
2022/01/08 11:53:16;;;;;;;6.83;3.27;;;8.20;68.10;8.10;96321.00;;;;4999731;28;20555;-77
2022/01/08 11:56:07;;;;;;;4.23;2.67;;;8.40;68.40;8.00;96315.00;;;;4999546;28;20194;-77
2022/01/08 11:59:05;;;;;;;4.70;2.30;;;8.80;65.40;6.70;96306.00;;;;4994812;28;20264;-77
2022/01/08 12:02:08;;;;;;;6.70;2.53;;;8.60;61.10;7.10;96300.00;;;;4999084;28;20241;-75
2022/01/08 12:04:57;;;;;;;8.63;2.83;;;8.60;61.50;7.90;96303.00;;;;4995793;28;20220;-77
2022/01/08 12:07:48;;;;;;;7.17;2.73;;;8.70;62.20;8.10;96299.00;;;;4990494;28;20203;-76
2022/01/08 12:10:57;;;;;;;6.70;3.37;;;8.80;60.50;8.00;96288.00;;;;5002689;28;20202;-77
2022/01/08 12:13:49;;;;;;;6.67;2.13;;;8.80;59.60;8.10;96293.00;;;;5002010;28;20209;-76
2022/01/08 12:16:41;;;;;;;7.73;3.03;;;8.70;59.90;8.30;96302.00;;;;5003235;28;20700;-74
2022/01/08 12:19:35;;;;;;;3.57;2.30;;;8.80;59.60;8.30;96311.00;;;;4993259;28;20210;-75
2022/01/08 12:22:33;;;;;;;6.27;2.80;;;9.30;57.60;9.00;96300.00;;;;5004375;28;20241;-75
2022/01/08 12:25:42;;;;;;;2.97;1.97;;;9.50;58.50;9.30;96304.00;;;;5002120;28;20291;-75
2022/01/08 12:28:57;;;;;;;3.73;3.30;;;9.80;58.10;9.80;96302.00;;;;5002733;28;20198;-76
2022/01/08 12:31:49;;;;;;;2.90;2.33;;;10.40;56.70;9.00;96298.00;;;;4998509;28;20236;-76
2022/01/08 12:34:47;;;;;;;6.97;2.97;;;11.10;54.60;10.50;96297.00;;;;5000566;28;20195;-74
2022/01/08 12:37:39;;;;;;;4.90;2.63;;;11.40;54.60;11.00;96296.00;;;;4995682;28;20210;-73
2022/01/08 12:40:40;;;;;;;3.27;2.63;;;11.70;53.60;10.30;96291.00;;;;4995198;28;20202;-77
2022/01/08 12:43:32;;;;;;;3.77;2.77;;;12.10;53.00;11.30;96276.00;;;;5004972;28;20556;-75
2022/01/08 12:46:23;;;;;;;2.63;2.10;;;12.20;52.60;11.40;96284.00;;;;5002928;28;20202;-75
2022/01/08 12:49:15;;;;;;;31.00;6.27;;;12.50;51.20;11.30;96276.00;;;;4998812;28;20658;-76
2022/01/08 12:52:12;;;;;;;4.43;2.27;;;12.40;51.00;11.20;96285.00;;;;4996856;28;20233;-75
2022/01/08 12:55:13;;;;;;;2.57;1.83;;;12.40;50.80;11.20;96278.00;;;;5004840;28;20205;-75
2022/01/08 12:58:12;;;;;;;3.53;1.97;;;12.40;50.30;11.20;96261.00;;;;5002824;28;20669;-75
2022/01/08 13:01:04;;;;;;;4.13;2.80;;;12.50;49.70;11.10;96259.00;;;;4989417;28;20575;-75